Flight Track Log - Related Links

Times and Time Zones

All times are in EDT time to prevent confusion due to time zone crossing. See the AAY461 flight status page for this flight to view local times or setup timezone preferences in your user account.

Time Position Orientation Groundspeed Altitude Reporting Facility
EDT Latitude Longitude Course Direction KTS MPH feet Rate Location/Type
Thu 09:52:28 PM 41.8869 -91.8417 252° West 225 259 4,000  Level Chicago Center
Thu 09:53:29 PM 41.8911 -91.9333 274° West 234 269 6,900 2,780 Climbing Chicago Center
Thu 09:54:31 PM 41.8711 -92.0322 255° West 276 318 9,700 2,146 Climbing Chicago Center
Thu 09:55:32 PM 41.8439 -92.1294 249° West 279 321 11,300 1,512 Climbing Chicago Center
Thu 09:56:34 PM 41.8128 -92.2500 251° West 336 387 12,800 1,902 Climbing Chicago Center
Thu 09:57:00 PM 41.8683 -91.7767 252° West  Level FlightAware Approximate
Thu 09:57:35 PM 41.7786 -92.3831 251° West 369 425 15,200  Level Chicago Center
Thu 09:58:37 PM 41.7433 -92.5147 250° West 375 432 17,400 2,098 Climbing Chicago Center
Thu 09:59:38 PM 41.7006 -92.6781 251° West 388 447 19,500 1,854 Climbing Chicago Center
Thu 10:00:40 PM 41.6664 -92.8042 250° West 393 452 21,200 1,714 Climbing Chicago Center
Thu 10:01:44 PM 41.6219 -92.9703 250° West 393 452 23,100 1,872 Climbing Minneapolis Center
Thu 10:02:45 PM 41.5842 -93.1108 250° West 401 461 25,100 1,902 Climbing Minneapolis Center
Thu 10:03:47 PM 41.5469 -93.2467 250° West 400 460 27,000 1,463 Climbing Minneapolis Center
Thu 10:04:48 PM 41.5100 -93.3806 250° West 395 455 28,100 984 Climbing Minneapolis Center
Thu 10:05:49 PM 41.4733 -93.5175 250° West 395 455 29,000 829 Climbing Minneapolis Center
Thu 10:06:51 PM 41.4353 -93.6553 250° West 395 455 29,800 488 Climbing Minneapolis Center
Thu 10:07:52 PM 41.4125 -93.8017 258° West 403 464 30,000 98 Climbing Minneapolis Center
Thu 10:08:53 PM 41.3864 -93.9744 259° West 403 464 30,000  Level Minneapolis Center
Thu 10:09:55 PM 41.3633 -94.1225 258° West 406 467 30,000  Level Minneapolis Center
Thu 10:10:56 PM 41.3381 -94.2797 258° West 414 476 30,000  Level Minneapolis Center
Thu 10:11:57 PM 41.3144 -94.4322 258° West 416 479 30,000  Level Minneapolis Center
Thu 10:12:59 PM 41.2886 -94.5872 258° West 423 487 30,000  Level Minneapolis Center
Thu 10:14:00 PM 41.2647 -94.7428 259° West 425 489 30,000  Level Minneapolis Center
Thu 10:15:02 PM 41.2400 -94.8975 258° West 425 489 30,000  Level Minneapolis Center
Thu 10:16:03 PM 41.2139 -95.0525 257° West 429 494 30,000  Level Minneapolis Center
Thu 10:17:04 PM 41.1892 -95.2072 258° West 429 494 30,000  Level Minneapolis Center
Thu 10:18:06 PM 41.1633 -95.3592 257° West 427 491 30,000  Level Minneapolis Center
Thu 10:19:07 PM 41.1367 -95.5139 257° West 427 491 30,000  Level Minneapolis Center
Thu 10:20:08 PM 41.1058 -95.6986 258° West 427 491 30,000  Level Minneapolis Center
Thu 10:21:10 PM 41.0789 -95.8531 257° West 427 491 30,000  Level Minneapolis Center
Thu 10:22:11 PM 41.0519 -96.0061 257° West 426 490 30,000  Level Minneapolis Center
Thu 10:23:12 PM 41.0261 -96.1606 258° West 426 490 30,000  Level Minneapolis Center
Thu 10:24:14 PM 40.9992 -96.3128 257° West 426 490 30,000  Level Minneapolis Center
Thu 10:25:15 PM 40.9714 -96.4669 257° West 426 490 30,000  Level Minneapolis Center
Thu 10:26:17 PM 40.9450 -96.6203 257° West 426 490 30,000  Level Minneapolis Center
Thu 10:27:18 PM 40.9153 -96.7731 256° West 426 490 30,000  Level Minneapolis Center
Thu 10:28:19 PM 40.8728 -96.9222 249° West 428 493 30,000  Level Minneapolis Center
Thu 10:29:21 PM 40.8289 -97.0728 249° West 434 499 30,000  Level Minneapolis Center
Thu 10:30:22 PM 40.7858 -97.2233 249° West 435 501 30,000  Level Minneapolis Center
Thu 10:31:23 PM 40.7406 -97.3819 249° West 435 501 30,000  Level Minneapolis Center
Thu 10:32:25 PM 40.6975 -97.5322 249° West 435 501 30,000  Level Minneapolis Center
Thu 10:33:26 PM 40.6536 -97.6831 249° West 436 502 30,000  Level Minneapolis Center
Thu 10:34:27 PM 40.6094 -97.8325 249° West 436 502 30,000  Level Minneapolis Center
Thu 10:35:28 PM 40.5658 -97.9819 249° West 436 502 30,000  Level Minneapolis Center
Thu 10:36:30 PM 40.5125 -98.1617 249° West 436 502 30,000  Level Minneapolis Center
Thu 10:37:31 PM 40.4672 -98.3119 248° West 436 502 30,000  Level Minneapolis Center
Thu 10:38:33 PM 40.4219 -98.4608 248° West 436 502 30,000  Level Minneapolis Center
Thu 10:39:34 PM 40.3775 -98.6117 249° West 437 503 30,000  Level Minneapolis Center
Thu 10:40:35 PM 40.3322 -98.7597 248° West 437 503 30,000  Level Minneapolis Center
Thu 10:41:37 PM 40.2872 -98.9086 248° West 437 503 30,000  Level Minneapolis Center
Thu 10:42:38 PM 40.2411 -99.0567 248° West 437 503 30,000  Level Minneapolis Center
Thu 10:43:18 PM 40.2133 -99.1461 248° West 437 503 30,000  Level Denver Center
Thu 10:44:32 PM 40.1686 -99.2933 248° West 437 503 30,000  Level Denver Center
Thu 10:45:34 PM 40.1036 -99.4992 248° West 437 503 30,000  Level Denver Center
Thu 10:46:48 PM 40.0581 -99.6461 248° West 437 503 30,000  Level Denver Center
Thu 10:47:50 PM 40.0017 -99.8211 247° West 437 503 30,000  Level Denver Center
Thu 10:48:51 PM 39.9556 -99.9706 248° West 440 506 30,000  Level Denver Center
Thu 10:49:53 PM 39.9092 -100.1150 247° West 437 503 30,000  Level Denver Center
Thu 10:50:55 PM 39.8622 -100.2606 247° West 436 502 30,000  Level Denver Center
Thu 10:51:56 PM 39.8150 -100.4067 247° West 436 502 30,000  Level Denver Center
Thu 10:52:58 PM 39.7622 -100.5681 247° West 435 501 30,000  Level Denver Center
Thu 10:54:11 PM 39.7164 -100.7061 247° West 435 501 30,000  Level Denver Center
Thu 10:55:13 PM 39.6561 -100.8906 247° West 434 499 30,000  Level Denver Center
Thu 10:56:15 PM 39.6103 -101.0292 247° West 435 501 30,000  Level Denver Center
Thu 10:57:16 PM 39.5572 -101.1883 247° West 433 498 30,000  Level Denver Center
Thu 10:58:18 PM 39.5111 -101.3278 247° West 435 501 30,000  Level Denver Center
Thu 10:59:20 PM 39.4578 -101.4878 247° West 435 501 30,000  Level Denver Center
Thu 11:00:21 PM 39.4108 -101.6264 246° West 437 503 30,000  Level Denver Center
Thu 11:01:22 PM 39.3764 -101.7669 252° West 430 495 30,000  Level Denver Center
Thu 11:02:24 PM 39.3519 -101.9386 260° West 430 495 30,000  Level Denver Center
Thu 11:03:25 PM 39.3281 -102.0961 259° West 430 495 30,000  Level Denver Center
Thu 11:04:27 PM 39.3050 -102.2406 258° West 430 495 30,000  Level Denver Center
Thu 11:05:28 PM 39.2794 -102.4083 259° West 430 495 30,000  Level Denver Center
Thu 11:06:30 PM 39.2561 -102.5542 258° West 432 497 30,000  Level Denver Center
Thu 11:07:31 PM 39.2331 -102.6983 258° West 432 497 30,000  Level Denver Center
Thu 11:08:32 PM 39.2053 -102.8697 258° West 428 493 30,000  Level Denver Center
Thu 11:09:46 PM 39.1756 -103.0494 258° West 428 493 30,000  Level Denver Center
Thu 11:10:48 PM 39.1517 -103.2000 258° West 429 494 30,000  Level Denver Center
Thu 11:11:49 PM 39.1261 -103.3517 258° West 430 495 30,000  Level Denver Center
Thu 11:12:50 PM 39.1064 -103.4706 258° West 430 495 30,000  Level Denver Center
Thu 11:13:52 PM 39.0767 -103.6486 258° West 425 489 30,000  Level Denver Center
Thu 11:14:53 PM 39.0511 -103.7989 258° West 428 493 30,000  Level Denver Center
Thu 11:15:55 PM 39.0256 -103.9492 258° West 430 495 30,000  Level Denver Center
Thu 11:17:08 PM 38.9989 -104.0989 257° West 430 495 30,000  Level Denver Center
Thu 11:18:10 PM 38.9686 -104.2786 258° West 429 494 30,000  Level Denver Center
Thu 11:19:11 PM 38.9372 -104.4556 257° West 426 490 30,000  Level Denver Center
Thu 11:20:12 PM 38.9108 -104.6061 257° West 428 493 30,000  Level Denver Center
Thu 11:21:14 PM 38.8839 -104.7567 257° West 429 494 30,000  Level Denver Center
Thu 11:22:15 PM 38.8583 -104.9019 257° West 422 486 30,000  Level Denver Center
Thu 11:23:17 PM 38.8311 -105.0508 257° West 422 486 30,000  Level Denver Center
Thu 11:24:18 PM 38.8039 -105.2011 257° West 429 494 30,000  Level Denver Center
Thu 11:25:19 PM 38.7767 -105.3511 257° West 429 494 30,000  Level Denver Center
Thu 11:26:21 PM 38.7489 -105.4981 256° West 429 494 30,000  Level Denver Center
Thu 11:27:22 PM 38.7214 -105.6481 257° West 429 494 30,000  Level Denver Center
Thu 11:28:23 PM 38.6933 -105.7967 256° West 429 494 30,000  Level Denver Center
Thu 11:29:24 PM 38.6594 -105.9744 256° West 430 495 30,000  Level Denver Center
Thu 11:30:26 PM 38.6314 -106.1225 256° West 430 495 30,000  Level Denver Center
Thu 11:31:27 PM 38.6017 -106.2719 256° West 428 493 30,000  Level Denver Center
Thu 11:32:28 PM 38.5731 -106.4206 256° West 426 490 30,000  Level Denver Center
Thu 11:33:30 PM 38.5433 -106.5694 256° West 427 491 30,000  Level Denver Center
Thu 11:34:43 PM 38.5147 -106.7172 256° West 428 493 30,000  Level Denver Center
Thu 11:35:45 PM 38.4794 -106.8944 256° West 428 493 30,000  Level Denver Center
Thu 11:36:46 PM 38.4494 -107.0419 255° West 427 491 30,000  Level Denver Center
Thu 11:37:47 PM 38.4011 -107.1894 247° West 430 495 30,000  Level Denver Center
Thu 11:38:49 PM 38.3556 -107.3264 247° West 430 495 30,000  Level Denver Center
Thu 11:39:50 PM 38.3047 -107.4803 247° West 429 494 30,000  Level Denver Center
Thu 11:40:51 PM 38.2608 -107.6125 247° West 423 487 30,000  Level Denver Center
Thu 11:41:53 PM 38.2092 -107.7697 247° West 427 491 30,000  Level Denver Center
Thu 11:43:06 PM 38.1631 -107.9022 246° West 427 491 30,000  Level Denver Center
Thu 11:45:09 PM 38.0583 -108.2128 247° West 433 498 30,000  Level Denver Center
Thu 11:47:12 PM 37.9581 -108.4997 246° West 431 496 30,000  Level Denver Center
Thu 11:48:13 PM 37.9128 -108.6308 246° West 430 495 30,000  Level Denver Center
Thu 11:49:15 PM 37.8583 -108.7864 246° West 430 495 30,000  Level Denver Center
Thu 11:50:16 PM 37.8131 -108.9203 247° West 431 496 30,000  Level Denver Center
Thu 11:51:17 PM 37.7719 -109.0811 252° West 432 497 30,000  Level Denver Center
Thu 11:52:19 PM 37.7381 -109.2183 253° West 432 497 30,000  Level Denver Center
Thu 11:53:20 PM 37.7094 -109.3322 252° West 431 496 30,000  Level Denver Center
Thu 11:54:33 PM 37.6633 -109.5161 252° West 432 497 30,000  Level Denver Center
Thu 11:55:35 PM 37.6233 -109.6769 253° West 431 496 30,000  Level Denver Center
Thu 11:56:36 PM 37.5825 -109.8353 252° West 429 494 30,000  Level Denver Center
Thu 11:57:37 PM 37.5483 -109.9686 252° West 423 487 30,000  Level Denver Center
Thu 11:58:39 PM 37.5083 -110.1281 252° West 423 487 30,000  Level Denver Center
Thu 11:59:41 PM 37.4708 -110.2733 252° West 423 487 30,000  Level Denver Center
Fri 12:00:42 AM 37.4339 -110.4144 252° West 425 489 30,000  Level Denver Center
Fri 12:01:44 AM 37.3967 -110.5556 252° West 425 489 30,000  Level Denver Center
Fri 12:02:45 AM 37.3614 -110.6953 252° West 424 488 30,000  Level Denver Center
Fri 12:03:58 AM 37.3233 -110.8356 251° West 424 488 30,000  Level Denver Center
Fri 12:05:00 AM 37.2789 -111.0036 252° West 422 486 30,000  Level Denver Center
Fri 12:06:01 AM 37.2419 -111.1425 252° West 422 486 30,000  Level Denver Center
Fri 12:07:03 AM 37.2039 -111.2828 251° West 422 486 30,000  Level Denver Center
Fri 12:08:04 AM 37.1661 -111.4211 251° West 422 486 30,000  Level Denver Center
Fri 12:09:17 AM 37.1250 -111.5881 253° West 420 483 30,000  Level Denver Center
Fri 12:10:19 AM 37.0908 -111.7569 256° West 420 483 30,000  Level Denver Center
Fri 12:11:20 AM 37.0608 -111.9000 255° West 420 483 30,000  Level Denver Center
Fri 12:12:21 AM 37.0297 -112.0414 255° West 420 483 30,000  Level Denver Center
Fri 12:13:23 AM 36.9972 -112.1903 255° West 434 499 30,000  Level Denver Center
Fri 12:14:24 AM 36.9642 -112.3425 255° West 447 514 30,000  Level Denver Center
Fri 12:15:54 AM 36.9128 -112.5803 255° West 446 513 30,000  Level Los Angeles Center
Fri 12:16:56 AM 36.8800 -112.7281 255° West 444 511 30,000  Level Los Angeles Center
Fri 12:17:58 AM 36.8467 -112.8825 255° West 451 519 30,000  Level Los Angeles Center
Fri 12:18:59 AM 36.8122 -113.0383 255° West 459 528 30,000  Level Los Angeles Center
Fri 12:20:01 AM 36.7775 -113.1919 254° West 460 529 30,000 -387 Level Los Angeles Center
Fri 12:21:03 AM 36.7439 -113.3414 254° West 452 520 29,200 -774 Descending Los Angeles Center
Fri 12:22:05 AM 36.7111 -113.4886 255° West 444 511 28,400 -1,512 Descending Los Angeles Center
Fri 12:23:06 AM 36.6789 -113.6328 254° West 435 501 26,100 -2,537 Descending Los Angeles Center
Fri 12:24:08 AM 36.6400 -113.8047 254° West 433 498 23,200 -2,613 Descending Los Angeles Center
Fri 12:25:10 AM 36.6089 -113.9411 254° West 416 479 20,700 -2,419 Descending Los Angeles Center
Fri 12:26:12 AM 36.5775 -114.0717 253° West 401 461 18,200 -2,494 Descending Los Angeles Center
Fri 12:26:39 AM 36.5606 -114.1225 247° West 391 450 17,000 -2,737 Descending Los Angeles Center
Fri 12:27:09 AM 36.5256 -114.1883 237° Southwest 377 434 15,600 -2,571 Descending Los Angeles Center
Fri 12:28:10 AM 36.4775 -114.3017 242° Southwest 369 425 13,100 -1,672 Descending Los Angeles Center
Fri 12:29:11 AM 36.4289 -114.4039 239° Southwest 336 387 12,200 -797 Descending Los Angeles Center
Fri 12:30:18 AM 36.3800 -114.4786 231° Southwest 289 333 11,400 -930 Descending Los Angeles Center
Fri 12:31:20 AM 36.3142 -114.5297 212° Southwest 280 322 10,200 -1,073 Descending Los Angeles Center
Fri 12:32:21 AM 36.2500 -114.5822 213° Southwest 278 320 9,200 -1,053 Descending Los Angeles Center
Fri 12:33:14 AM 36.1933 -114.6389 219° Southwest 267 307 8,200 -1,053 Descending Los Angeles Center
Fri 12:34:15 AM 36.1581 -114.7333 245° Southwest 275 316 7,200 -1,014 Descending Los Angeles Center
Fri 12:34:25 AM 36.1539 -114.7417 238° Southwest 275 316 7,000 -1,377 Descending Los Angeles Center
Fri 12:35:16 AM 36.1281 -114.8128 246° West 257 296 5,800 -1,279 Descending Los Angeles Center
Fri 12:35:26 AM 36.1222 -114.8208 228° Southwest 268 308 5,700 -800 Descending Los Angeles Center
Fri 12:36:16 AM 36.1011 -114.8778 245° Southwest 201 231 5,000 -774 Descending Los Angeles Center
Fri 12:36:28 AM 36.0958 -114.8861 232° Southwest 239 275 4,900 -98 Descending Los Angeles Center
Fri 12:37:17 AM 36.0808 -114.9325 248° West 172 198 4,900 -197 Level Los Angeles Center
Fri 12:37:29 AM 36.0783 -114.9483 259° West 188 216 4,700 -973 Descending Los Angeles Center
Fri 12:38:31 AM 36.0778 -115.0125 269° West 188 216 3,700 -873 Descending Los Angeles Center
Fri 12:39:19 AM 36.0761 -115.0592 267° West 176 203 3,100 -787 Descending Los Angeles Center
Fri 12:39:32 AM 36.0769 -115.0711 275° West 175 201 2,900 -787 Descending Los Angeles Center
Fri 12:40:20 AM 36.0753 -115.1153 267° West 151 174 2,300 -774 Descending Los Angeles Center
Fri 12:40:34 AM 36.0758 -115.1269 273° West 158 182 2,100 -857 Descending Los Angeles Center

Login

Don't have an account? Register now (free) for customized features, flight alerts, and more!